createdAt,value
2019-05-09T00:02:34.583Z,9.95
2019-05-09T00:05:06.278Z,9.99
2019-05-09T00:07:37.884Z,9.94
2019-05-09T00:10:10.726Z,9.94
2019-05-09T00:12:43.761Z,9.96
2019-05-09T00:15:16.539Z,9.96
2019-05-09T00:17:48.213Z,9.87
2019-05-09T00:20:43.462Z,9.98
2019-05-09T00:23:14.869Z,9.99
2019-05-09T00:25:47.201Z,10.02
2019-05-09T00:28:20.563Z,9.92
2019-05-09T00:31:05.567Z,9.92
2019-05-09T00:33:39.169Z,9.96
2019-05-09T00:36:10.744Z,9.98
2019-05-09T00:38:43.934Z,9.91
2019-05-09T00:41:15.439Z,9.85
2019-05-09T00:43:55.208Z,9.91
2019-05-09T00:46:34.088Z,9.99
2019-05-09T00:49:08.400Z,10.02
2019-05-09T00:51:39.966Z,9.98
2019-05-09T00:54:13.494Z,9.98
2019-05-09T00:56:46.879Z,10.00
2019-05-09T00:59:18.489Z,10.03
2019-05-09T01:01:50.560Z,10.01
2019-05-09T01:04:24.173Z,9.96
2019-05-09T01:06:58.924Z,9.92
2019-05-09T01:09:30.676Z,9.98
2019-05-09T01:12:04.018Z,9.98
2019-05-09T01:14:35.486Z,9.93
2019-05-09T01:17:07.321Z,9.90
2019-05-09T01:19:38.898Z,9.90
2019-05-09T01:22:10.430Z,9.93
2019-05-09T01:24:44.206Z,9.94
2019-05-09T01:27:15.520Z,9.91
2019-05-09T01:29:48.235Z,9.92
2019-05-09T01:32:34.261Z,9.98
2019-05-09T01:35:09.153Z,9.99
2019-05-09T01:37:43.350Z,10.04
2019-05-09T01:40:16.107Z,10.03
2019-05-09T01:42:48.702Z,10.03
2019-05-09T01:45:23.531Z,10.07
2019-05-09T01:47:55.317Z,10.04
2019-05-09T01:50:27.056Z,10.08
2019-05-09T01:52:59.102Z,10.10
2019-05-09T01:55:48.987Z,10.10
2019-05-09T01:58:20.579Z,10.12
2019-05-09T02:00:54.022Z,10.17
2019-05-09T02:03:25.806Z,10.14
2019-05-09T02:05:57.363Z,10.20
2019-05-09T02:08:28.791Z,10.13
2019-05-09T02:11:00.572Z,10.13
2019-05-09T02:13:33.903Z,10.10
2019-05-09T02:16:14.118Z,10.14
2019-05-09T02:18:57.485Z,10.14
2019-05-09T02:21:29.101Z,10.18
2019-05-09T02:24:03.074Z,10.09
2019-05-09T02:26:35.446Z,10.09
2019-05-09T02:29:09.256Z,10.06
2019-05-09T02:31:44.276Z,10.06
2019-05-09T02:34:15.226Z,10.06
2019-05-09T02:36:49.523Z,10.06
2019-05-09T02:39:20.167Z,10.02
2019-05-09T02:42:07.658Z,10.03
2019-05-09T02:44:28.931Z,10.09
2019-05-09T02:47:08.737Z,10.09
2019-05-09T02:49:39.363Z,10.10
2019-05-09T02:52:13.284Z,10.08
2019-05-09T02:54:44.808Z,10.06
2019-05-09T02:57:18.435Z,10.00
2019-05-09T03:00:04.813Z,9.97
2019-05-09T03:02:53.750Z,9.98
2019-05-09T03:05:29.395Z,9.97
2019-05-09T03:08:00.283Z,9.98
2019-05-09T03:10:31.895Z,9.94
2019-05-09T03:13:03.745Z,9.92
2019-05-09T03:15:39.376Z,9.93
2019-05-09T03:18:10.776Z,9.95
2019-05-09T03:21:08.931Z,9.97
2019-05-09T03:23:40.374Z,9.97
2019-05-09T03:26:14.205Z,10.00
2019-05-09T03:29:03.192Z,9.97
2019-05-09T03:31:38.999Z,10.03
2019-05-09T03:34:09.829Z,9.96
2019-05-09T03:36:42.379Z,9.99
2019-05-09T03:39:15.731Z,9.96
2019-05-09T03:41:48.722Z,10.01
2019-05-09T03:44:20.611Z,10.08
2019-05-09T03:47:04.309Z,10.07
2019-05-09T03:49:37.587Z,10.00
2019-05-09T03:52:09.214Z,10.06
2019-05-09T03:54:41.454Z,10.06
2019-05-09T03:57:30.933Z,10.08
2019-05-09T04:00:02.588Z,10.12
2019-05-09T04:02:35.036Z,10.16
2019-05-09T04:05:08.096Z,10.21
2019-05-09T04:07:41.457Z,10.18
2019-05-09T04:10:14.889Z,10.19
2019-05-09T04:12:55.867Z,10.20
2019-05-09T04:15:20.225Z,10.22
2019-05-09T04:17:52.212Z,10.22
2019-05-09T04:20:24.314Z,10.27
2019-05-09T04:22:59.338Z,10.29
2019-05-09T04:25:33.274Z,10.32
2019-05-09T04:28:07.476Z,10.36
2019-05-09T04:30:43.937Z,10.36
2019-05-09T04:33:17.728Z,10.35
2019-05-09T04:35:49.809Z,10.42
2019-05-09T04:38:22.137Z,10.48
2019-05-09T04:40:55.038Z,10.50
2019-05-09T04:43:35.560Z,10.49
2019-05-09T04:46:07.890Z,10.50
2019-05-09T04:48:39.037Z,10.54
2019-05-09T04:51:11.010Z,10.58
2019-05-09T04:53:44.404Z,10.61
2019-05-09T04:56:32.388Z,10.67
2019-05-09T04:59:07.334Z,10.70
2019-05-09T05:02:08.651Z,10.77
2019-05-09T05:04:40.069Z,10.82
2019-05-09T05:07:11.807Z,10.80
2019-05-09T05:09:44.789Z,10.81
2019-05-09T05:12:18.558Z,10.84
2019-05-09T05:14:52.836Z,10.89
2019-05-09T05:17:24.624Z,10.96
2019-05-09T05:19:59.645Z,11.04
2019-05-09T05:22:52.256Z,11.04
2019-05-09T05:25:25.423Z,11.09
2019-05-09T05:27:58.456Z,11.13
2019-05-09T05:30:30.641Z,11.15
2019-05-09T05:33:07.993Z,11.15
2019-05-09T05:36:03.878Z,11.21
2019-05-09T05:38:47.841Z,11.23
2019-05-09T05:41:19.065Z,11.33
2019-05-09T05:43:51.800Z,11.42
2019-05-09T05:46:37.908Z,11.42
2019-05-09T05:49:11.944Z,11.54
2019-05-09T05:51:49.886Z,11.55
2019-05-09T05:54:22.707Z,11.55
2019-05-09T05:56:57.805Z,11.63
2019-05-09T05:59:30.350Z,11.62
2019-05-09T06:02:02.061Z,11.68
2019-05-09T06:04:33.936Z,11.73
2019-05-09T06:07:07.956Z,11.78
2019-05-09T06:09:39.361Z,11.76
2019-05-09T06:12:11.511Z,11.86
2019-05-09T06:14:43.203Z,12.01
2019-05-09T06:17:14.867Z,12.04
2019-05-09T06:19:48.252Z,12.13
2019-05-09T06:22:20.955Z,12.23
2019-05-09T06:24:53.333Z,12.24
2019-05-09T06:27:27.556Z,12.37
2019-05-09T06:30:01.631Z,12.37
2019-05-09T06:32:33.977Z,12.48
2019-05-09T06:35:08.182Z,12.51
2019-05-09T06:37:39.229Z,12.58
2019-05-09T06:40:13.672Z,12.53
2019-05-09T06:42:48.696Z,12.62
2019-05-09T06:45:48.754Z,12.75
2019-05-09T06:48:21.819Z,12.84
2019-05-09T06:50:53.791Z,12.84
2019-05-09T06:53:27.230Z,12.94
2019-05-09T06:55:59.295Z,12.90
2019-05-09T06:58:34.906Z,13.05
2019-05-09T07:01:28.997Z,12.94
2019-05-09T07:04:09.192Z,12.99
2019-05-09T07:06:48.599Z,12.92
2019-05-09T07:09:28.124Z,13.07
2019-05-09T07:12:03.679Z,13.10
2019-05-09T07:14:44.881Z,13.06
2019-05-09T07:17:18.328Z,13.27
2019-05-09T07:19:50.695Z,13.36
2019-05-09T07:22:40.462Z,13.41
2019-05-09T07:25:19.891Z,13.34
2019-05-09T07:28:02.805Z,13.44
2019-05-09T07:30:59.331Z,13.50
2019-05-09T07:33:53.419Z,13.69
2019-05-09T07:36:25.071Z,13.99
2019-05-09T07:38:58.227Z,14.12
2019-05-09T07:41:33.610Z,14.15
2019-05-09T07:44:07.592Z,14.42
2019-05-09T07:46:47.483Z,14.69
2019-05-09T07:49:21.528Z,14.80
2019-05-09T07:51:55.736Z,15.14
2019-05-09T07:54:29.218Z,15.28
2019-05-09T07:57:01.200Z,15.51
2019-05-09T07:59:32.911Z,15.39
2019-05-09T08:02:08.845Z,15.46
2019-05-09T08:04:40.769Z,15.77
2019-05-09T08:07:14.796Z,16.16
2019-05-09T08:09:48.085Z,16.08
2019-05-09T08:12:20.803Z,16.21
2019-05-09T08:15:07.256Z,16.28
2019-05-09T08:17:28.579Z,16.23
2019-05-09T08:20:00.579Z,16.36
2019-05-09T08:22:32.781Z,16.27
2019-05-09T08:25:04.787Z,16.67
2019-05-09T08:27:38.466Z,17.00
2019-05-09T08:30:12.704Z,17.08
2019-05-09T08:32:44.614Z,16.99
2019-05-09T08:35:18.297Z,17.12
2019-05-09T08:37:50.549Z,17.12
2019-05-09T08:40:23.027Z,17.17
2019-05-09T08:42:55.224Z,17.22
2019-05-09T08:45:30.764Z,17.29
2019-05-09T08:48:00.778Z,17.39
2019-05-09T08:50:43.300Z,17.44
2019-05-09T08:53:15.314Z,17.71
2019-05-09T08:55:48.350Z,17.89
2019-05-09T08:58:20.779Z,17.68
2019-05-09T09:00:53.007Z,17.47
2019-05-09T09:03:25.140Z,17.46
2019-05-09T09:05:57.707Z,17.47
2019-05-09T09:08:30.289Z,18.07
2019-05-09T09:11:03.939Z,18.07
2019-05-09T09:13:37.775Z,18.19
2019-05-09T09:16:18.357Z,18.16
2019-05-09T09:18:44.845Z,18.02
2019-05-09T09:21:18.311Z,18.22
2019-05-09T09:23:51.962Z,18.06
2019-05-09T09:26:23.972Z,18.15
2019-05-09T09:28:57.763Z,17.88
2019-05-09T09:31:29.149Z,17.98
2019-05-09T09:34:01.863Z,18.30
2019-05-09T09:36:38.880Z,18.28
2019-05-09T09:39:10.689Z,18.17
2019-05-09T09:41:44.501Z,18.09
2019-05-09T09:44:18.238Z,18.05
2019-05-09T09:46:50.532Z,18.23
2019-05-09T09:49:22.363Z,18.68
2019-05-09T09:51:54.125Z,18.41
2019-05-09T09:54:28.219Z,17.71
2019-05-09T09:57:01.426Z,17.26
2019-05-09T09:59:41.054Z,16.76
2019-05-09T10:02:14.772Z,16.77
2019-05-09T10:04:47.365Z,17.24
2019-05-09T10:07:19.454Z,17.84
2019-05-09T10:09:51.582Z,18.24
2019-05-09T10:12:24.767Z,18.38
2019-05-09T10:15:03.518Z,18.54
2019-05-09T10:17:54.250Z,18.46
2019-05-09T10:20:48.631Z,18.55
2019-05-09T10:23:21.706Z,18.34
2019-05-09T10:25:53.688Z,18.46
2019-05-09T10:28:29.826Z,18.28
2019-05-09T10:30:59.611Z,18.33
2019-05-09T10:33:31.808Z,18.12
2019-05-09T10:36:08.638Z,17.82
2019-05-09T10:38:41.393Z,17.93
2019-05-09T10:41:13.418Z,18.21
2019-05-09T10:44:03.077Z,18.65
2019-05-09T10:47:09.016Z,18.91
2019-05-09T10:49:42.239Z,18.49
2019-05-09T10:52:14.677Z,18.57
2019-05-09T10:54:46.542Z,18.45
2019-05-09T10:57:19.925Z,18.21
2019-05-09T10:59:52.011Z,18.11
2019-05-09T11:02:23.785Z,17.75
2019-05-09T11:04:57.849Z,17.46
2019-05-09T11:07:30.146Z,18.07
2019-05-09T11:10:02.753Z,17.96
2019-05-09T11:12:34.749Z,18.26
2019-05-09T11:15:08.989Z,18.35
2019-05-09T11:17:39.922Z,18.39
2019-05-09T11:20:13.268Z,18.61
2019-05-09T11:22:45.177Z,18.70
2019-05-09T11:25:16.876Z,18.62
2019-05-09T11:28:06.728Z,18.22
2019-05-09T11:30:23.818Z,18.19
2019-05-09T11:32:56.821Z,17.31
2019-05-09T11:35:30.017Z,16.93
2019-05-09T11:38:02.148Z,17.29
2019-05-09T11:40:37.842Z,17.37
2019-05-09T11:43:09.881Z,17.73
2019-05-09T11:45:41.616Z,17.79
2019-05-09T11:48:13.825Z,17.89
2019-05-09T11:50:47.791Z,18.33
2019-05-09T11:53:25.480Z,18.31
2019-05-09T11:55:57.818Z,17.90
2019-05-09T11:58:30.140Z,17.83
2019-05-09T12:01:03.426Z,18.06
2019-05-09T12:03:35.228Z,18.15
2019-05-09T12:06:07.957Z,17.70
2019-05-09T12:08:40.483Z,17.73
2019-05-09T12:11:14.485Z,17.72
2019-05-09T12:13:48.616Z,17.49
2019-05-09T12:16:20.112Z,17.01
2019-05-09T12:18:52.548Z,16.76
2019-05-09T12:21:28.164Z,16.85
2019-05-09T12:24:01.264Z,16.78
2019-05-09T12:26:34.705Z,16.65
2019-05-09T12:29:09.052Z,16.33
2019-05-09T12:31:43.172Z,16.48
2019-05-09T12:34:18.921Z,16.21
2019-05-09T12:36:50.008Z,16.10
2019-05-09T12:39:22.831Z,16.00
2019-05-09T12:41:57.873Z,16.03
2019-05-09T12:44:29.993Z,15.90
2019-05-09T12:47:01.887Z,15.85
2019-05-09T12:49:33.808Z,15.60
2019-05-09T12:52:08.037Z,15.73
2019-05-09T12:54:39.206Z,15.33
2019-05-09T12:57:10.724Z,15.54
2019-05-09T12:59:48.563Z,15.56
2019-05-09T13:02:17.891Z,15.57
2019-05-09T13:04:49.672Z,15.51
2019-05-09T13:07:21.636Z,15.36
2019-05-09T13:09:58.241Z,15.37
2019-05-09T13:12:33.748Z,15.43
2019-05-09T13:15:12.412Z,15.44
2019-05-09T13:17:48.001Z,15.09
2019-05-09T13:20:20.534Z,14.87
2019-05-09T13:22:52.502Z,14.95
2019-05-09T13:25:24.712Z,14.78
2019-05-09T13:27:58.218Z,14.88
2019-05-09T13:30:34.591Z,14.96
2019-05-09T13:33:07.014Z,14.98
2019-05-09T13:35:39.185Z,15.01
2019-05-09T13:38:10.373Z,14.92
2019-05-09T13:40:42.092Z,14.84
2019-05-09T13:43:14.471Z,14.90
2019-05-09T13:45:46.268Z,14.92
2019-05-09T13:48:30.338Z,14.82
2019-05-09T13:50:51.633Z,14.66
2019-05-09T13:53:23.450Z,14.78
2019-05-09T13:55:57.670Z,14.72
2019-05-09T13:58:29.886Z,14.84
2019-05-09T14:01:02.728Z,14.88
2019-05-09T14:03:34.535Z,14.74
2019-05-09T14:06:08.904Z,14.71
2019-05-09T14:08:39.910Z,14.75
2019-05-09T14:11:11.561Z,14.84
2019-05-09T14:13:44.813Z,14.54
2019-05-09T14:16:21.790Z,14.69
2019-05-09T14:18:50.796Z,14.94
2019-05-09T14:21:24.622Z,14.82
2019-05-09T14:24:10.962Z,14.91
2019-05-09T14:26:30.652Z,14.87
2019-05-09T14:29:03.838Z,14.87
2019-05-09T14:31:35.579Z,14.83
2019-05-09T14:34:08.836Z,14.69
2019-05-09T14:36:45.343Z,14.81
2019-05-09T14:39:14.450Z,14.60
2019-05-09T14:41:47.222Z,14.44
2019-05-09T14:44:19.703Z,14.51
2019-05-09T14:46:52.073Z,14.54
2019-05-09T14:49:23.803Z,14.55
2019-05-09T14:51:57.768Z,14.35
2019-05-09T14:54:29.131Z,14.07
2019-05-09T14:57:00.908Z,14.24
2019-05-09T14:59:32.753Z,14.31
2019-05-09T15:02:05.087Z,14.38
2019-05-09T15:04:40.291Z,14.50
2019-05-09T15:07:13.900Z,14.32
2019-05-09T15:09:46.355Z,14.24
2019-05-09T15:12:28.493Z,14.19
2019-05-09T15:15:03.598Z,13.99
2019-05-09T15:17:36.540Z,13.82
2019-05-09T15:20:09.105Z,13.76
2019-05-09T15:22:41.092Z,13.49
2019-05-09T15:25:14.590Z,13.41
2019-05-09T15:27:47.725Z,13.43
2019-05-09T15:30:19.941Z,13.55
2019-05-09T15:32:52.853Z,13.50
2019-05-09T15:35:28.195Z,13.49
2019-05-09T15:38:00.446Z,13.47
2019-05-09T15:40:31.966Z,13.38
2019-05-09T15:43:05.105Z,13.35
2019-05-09T15:45:48.191Z,13.32
2019-05-09T15:48:21.475Z,13.30
2019-05-09T15:50:53.083Z,13.21
2019-05-09T15:53:27.808Z,13.15
2019-05-09T15:55:59.598Z,13.00
2019-05-09T15:58:31.384Z,12.98
2019-05-09T16:01:03.236Z,12.99
2019-05-09T16:03:34.985Z,12.97
2019-05-09T16:06:09.056Z,12.94
2019-05-09T16:08:43.939Z,13.03
2019-05-09T16:11:17.803Z,13.05
2019-05-09T16:13:49.202Z,13.08
2019-05-09T16:16:20.967Z,12.96
2019-05-09T16:18:54.015Z,12.89
2019-05-09T16:21:27.772Z,12.92
2019-05-09T16:23:59.494Z,12.98
2019-05-09T16:26:31.342Z,12.86
2019-05-09T16:29:04.220Z,12.87
2019-05-09T16:31:38.814Z,12.74
2019-05-09T16:34:09.683Z,12.70
2019-05-09T16:36:48.038Z,12.81
2019-05-09T16:39:27.896Z,12.90
2019-05-09T16:41:59.475Z,12.77
2019-05-09T16:44:33.112Z,12.55
2019-05-09T16:47:05.276Z,12.64
2019-05-09T16:49:38.846Z,12.52
2019-05-09T16:52:10.798Z,12.54
2019-05-09T16:54:44.551Z,12.55
2019-05-09T16:57:18.821Z,12.54
2019-05-09T16:59:50.688Z,12.56
2019-05-09T17:02:24.993Z,12.52
2019-05-09T17:04:57.678Z,12.36
2019-05-09T17:07:41.500Z,12.50
2019-05-09T17:10:14.358Z,12.39
2019-05-09T17:12:47.837Z,12.44
2019-05-09T17:15:29.160Z,12.46
2019-05-09T17:17:57.818Z,12.54
2019-05-09T17:20:42.172Z,12.43
2019-05-09T17:23:17.917Z,12.38
2019-05-09T17:25:51.905Z,12.25
2019-05-09T17:28:23.977Z,12.21
2019-05-09T17:31:11.896Z,12.14
2019-05-09T17:33:48.686Z,12.16
2019-05-09T17:36:20.402Z,12.19
2019-05-09T17:38:55.013Z,12.04
2019-05-09T17:41:28.387Z,11.99
2019-05-09T17:44:01.158Z,12.09
2019-05-09T17:46:33.086Z,12.06
2019-05-09T17:49:04.922Z,12.00
2019-05-09T17:51:36.893Z,11.97
2019-05-09T17:54:08.787Z,12.05
2019-05-09T17:56:42.554Z,12.02
2019-05-09T17:59:14.209Z,11.92
2019-05-09T18:01:48.096Z,11.96
2019-05-09T18:04:19.294Z,11.94
2019-05-09T18:06:50.954Z,11.90
2019-05-09T18:09:23.506Z,11.87
2019-05-09T18:11:57.843Z,11.74
2019-05-09T18:14:29.747Z,11.81
2019-05-09T18:17:03.092Z,11.79
2019-05-09T18:19:37.999Z,11.78
2019-05-09T18:22:09.164Z,11.74
2019-05-09T18:24:41.015Z,11.82
2019-05-09T18:27:13.697Z,11.86
2019-05-09T18:29:47.437Z,11.75
2019-05-09T18:32:34.743Z,11.75
2019-05-09T18:35:18.027Z,11.69
2019-05-09T18:37:49.560Z,11.66
2019-05-09T18:40:22.383Z,11.55
2019-05-09T18:42:54.230Z,11.59
2019-05-09T18:45:28.249Z,11.59
2019-05-09T18:48:00.238Z,11.64
2019-05-09T18:50:31.887Z,11.64
2019-05-09T18:53:04.014Z,11.64
2019-05-09T18:55:35.591Z,11.67
2019-05-09T18:58:07.193Z,11.71
2019-05-09T19:00:38.871Z,11.66
2019-05-09T19:03:10.654Z,11.64
2019-05-09T19:05:42.357Z,11.74
2019-05-09T19:08:13.942Z,11.79
2019-05-09T19:10:45.977Z,11.78
2019-05-09T19:13:17.714Z,11.77
2019-05-09T19:16:02.032Z,11.79
2019-05-09T19:18:55.224Z,11.84
2019-05-09T19:21:48.987Z,11.80
2019-05-09T19:24:21.443Z,11.81
2019-05-09T19:26:53.828Z,11.83
2019-05-09T19:29:25.967Z,11.80
2019-05-09T19:31:57.679Z,11.82
2019-05-09T19:34:30.488Z,11.81
2019-05-09T19:37:01.999Z,11.81
2019-05-09T19:39:33.540Z,11.84
2019-05-09T19:42:05.205Z,11.83
2019-05-09T19:44:38.019Z,11.83
2019-05-09T19:47:09.632Z,11.84
2019-05-09T19:49:42.540Z,11.86
2019-05-09T19:52:14.378Z,11.85
2019-05-09T19:54:46.298Z,11.81
2019-05-09T19:57:18.230Z,11.81
2019-05-09T19:59:49.916Z,11.80
2019-05-09T20:02:23.536Z,11.79
2019-05-09T20:04:55.988Z,11.78
2019-05-09T20:07:27.687Z,11.86
2019-05-09T20:10:21.174Z,11.88
2019-05-09T20:13:26.559Z,11.85
2019-05-09T20:15:58.160Z,11.83
2019-05-09T20:18:29.701Z,11.85
2019-05-09T20:21:01.980Z,11.89
2019-05-09T20:23:33.838Z,11.87
2019-05-09T20:26:05.628Z,11.86
2019-05-09T20:28:37.207Z,11.83
2019-05-09T20:31:09.112Z,11.88
2019-05-09T20:33:41.084Z,11.90
2019-05-09T20:36:12.938Z,11.93
2019-05-09T20:38:44.647Z,11.92
2019-05-09T20:41:18.158Z,11.90
2019-05-09T20:43:49.999Z,11.88
2019-05-09T20:46:22.720Z,11.88
2019-05-09T20:48:54.350Z,11.86
2019-05-09T20:51:26.247Z,11.89
2019-05-09T20:53:58.151Z,11.95
2019-05-09T20:56:30.115Z,12.01
2019-05-09T20:59:02.406Z,12.00
2019-05-09T21:01:34.722Z,11.98
2019-05-09T21:04:06.619Z,11.98
2019-05-09T21:06:38.662Z,11.94
2019-05-09T21:09:10.738Z,11.87
2019-05-09T21:11:42.728Z,11.96
2019-05-09T21:14:14.563Z,11.92
2019-05-09T21:16:46.389Z,11.82
2019-05-09T21:19:19.164Z,11.82
2019-05-09T21:21:51.018Z,11.81
2019-05-09T21:24:25.997Z,11.78
2019-05-09T21:26:57.704Z,11.81
2019-05-09T21:29:29.724Z,11.81
2019-05-09T21:32:01.638Z,11.79
2019-05-09T21:34:33.588Z,11.84
2019-05-09T21:37:06.295Z,11.82
2019-05-09T21:39:38.151Z,11.75
2019-05-09T21:42:11.907Z,11.75
2019-05-09T21:44:43.547Z,11.79
2019-05-09T21:47:15.132Z,11.78
2019-05-09T21:49:46.886Z,11.69
2019-05-09T21:52:18.654Z,11.79
2019-05-09T21:54:51.355Z,11.85
2019-05-09T21:57:23.044Z,11.81
2019-05-09T21:59:54.895Z,11.85
2019-05-09T22:02:27.122Z,11.86
2019-05-09T22:04:58.841Z,11.81
2019-05-09T22:07:30.620Z,11.83
2019-05-09T22:10:02.512Z,11.86
2019-05-09T22:12:34.175Z,11.80
2019-05-09T22:15:06.030Z,11.83
2019-05-09T22:17:39.464Z,11.81
2019-05-09T22:20:13.651Z,11.86
2019-05-09T22:22:45.271Z,11.91
2019-05-09T22:25:19.399Z,11.96
2019-05-09T22:27:51.099Z,11.86
2019-05-09T22:30:24.301Z,11.90
2019-05-09T22:32:55.825Z,11.86
2019-05-09T22:35:27.427Z,11.96
2019-05-09T22:37:59.075Z,11.95
2019-05-09T22:40:30.570Z,11.99
2019-05-09T22:43:02.264Z,12.00
2019-05-09T22:45:34.073Z,12.06
2019-05-09T22:48:05.839Z,12.09
2019-05-09T22:50:37.420Z,12.22
2019-05-09T22:53:09.034Z,12.29
2019-05-09T22:55:40.649Z,12.33
2019-05-09T22:58:12.126Z,12.39
2019-05-09T23:00:43.697Z,12.43
2019-05-09T23:03:15.187Z,12.46
2019-05-09T23:05:47.438Z,12.50
2019-05-09T23:08:19.039Z,12.48
2019-05-09T23:10:53.527Z,12.36
2019-05-09T23:13:25.379Z,12.33
2019-05-09T23:15:57.040Z,12.27
2019-05-09T23:18:28.704Z,12.26
2019-05-09T23:21:03.813Z,12.13
2019-05-09T23:23:38.862Z,12.13
2019-05-09T23:26:11.952Z,12.17
2019-05-09T23:28:43.406Z,12.19
2019-05-09T23:31:18.934Z,12.24
2019-05-09T23:33:50.920Z,12.20
2019-05-09T23:36:22.492Z,12.11
2019-05-09T23:39:13.277Z,12.07
2019-05-09T23:41:44.943Z,12.06
2019-05-09T23:44:16.641Z,12.04
2019-05-09T23:46:49.752Z,11.96
2019-05-09T23:49:22.016Z,12.00
2019-05-09T23:51:54.653Z,11.97
2019-05-09T23:54:46.969Z,11.90
2019-05-09T23:57:34.940Z,11.86
